OPO weather

Francisco de Sá Carneiro Airport
Porto, Oporto District, Portugal

Public forecast

Using degrees Celsius for public forecast. Weather courtesy of forecast.io.

METAR (pilot weather report)

Retrieved 2019/03/23 10:30 UTC (4 minutes ago):

LPPR 231030Z 11009KT CAVOK 19/04 Q1024

TAF (pilot weather forecast)

Retrieved 2019/03/23 06:36 UTC (4 hours ago):

TAF LPPR 230500Z 2306/2406 09008KT CAVOK BECMG 2312/2315 30010KT BECMG 2322/2324 05005KT BECMG 2401/2404 09008KT